createdAt,value
2023-03-15T00:01:15.051Z,93951.66
2023-03-15T00:03:43.199Z,93959.16
2023-03-15T00:06:10.794Z,93995.28
2023-03-15T00:08:38.374Z,94021.09
2023-03-15T00:11:05.635Z,94026.56
2023-03-15T00:13:32.816Z,94042.63
2023-03-15T00:16:03.420Z,94047.41
2023-03-15T00:18:30.781Z,94040.59
2023-03-15T00:20:58.544Z,94040.63
2023-03-15T00:23:25.568Z,94043.22
2023-03-15T00:25:53.540Z,94043.75
2023-03-15T00:28:20.490Z,94052.59
2023-03-15T00:30:47.271Z,94055.00
2023-03-15T00:33:15.133Z,94067.53
2023-03-15T00:35:45.483Z,94062.50
2023-03-15T00:38:14.268Z,94059.00
2023-03-15T00:40:41.229Z,94054.13
2023-03-15T00:43:07.969Z,94072.19
2023-03-15T00:45:34.729Z,94085.16
2023-03-15T00:48:01.479Z,94072.13
2023-03-15T00:50:29.246Z,94085.03
2023-03-15T00:52:56.004Z,94096.72
2023-03-15T00:55:23.050Z,94105.53
2023-03-15T00:57:49.808Z,94117.47
2023-03-15T01:00:25.109Z,94112.16
2023-03-15T01:02:53.625Z,94120.56
2023-03-15T01:05:21.656Z,94135.81
2023-03-15T01:07:49.185Z,94146.38
2023-03-15T01:10:16.891Z,94144.22
2023-03-15T01:12:44.176Z,94147.31
2023-03-15T01:15:15.205Z,94157.00
2023-03-15T01:17:42.707Z,94178.81
2023-03-15T01:20:13.356Z,94186.13
2023-03-15T01:22:40.538Z,94190.38
2023-03-15T01:25:09.388Z,94187.78
2023-03-15T01:27:36.386Z,94195.97
2023-03-15T01:30:03.974Z,94185.81
2023-03-15T01:32:30.776Z,94182.94
2023-03-15T01:34:57.904Z,94196.38
2023-03-15T01:37:24.847Z,94193.19
2023-03-15T01:39:51.920Z,94207.19
2023-03-15T01:42:18.795Z,94205.53
2023-03-15T01:44:52.972Z,94208.59
2023-03-15T01:47:20.286Z,94218.81
2023-03-15T01:49:57.972Z,94215.47
2023-03-15T01:52:36.358Z,94207.94
2023-03-15T01:55:14.316Z,94224.69
2023-03-15T01:57:50.538Z,94228.44
2023-03-15T02:00:20.020Z,94234.44
2023-03-15T02:02:53.866Z,94223.41
2023-03-15T02:05:25.796Z,94237.06
2023-03-15T02:07:54.780Z,94234.22
2023-03-15T02:10:38.339Z,94251.47
2023-03-15T02:13:05.745Z,94244.41
2023-03-15T02:15:32.658Z,94241.56
2023-03-15T02:17:59.546Z,94249.81
2023-03-15T02:21:00.440Z,94258.66
2023-03-15T02:23:29.139Z,94259.88
2023-03-15T02:26:21.871Z,94275.94
2023-03-15T02:28:49.725Z,94255.97
2023-03-15T02:31:16.632Z,94270.44
2023-03-15T02:33:50.462Z,94272.91
2023-03-15T02:36:27.937Z,94281.72
2023-03-15T02:38:56.919Z,94266.34
2023-03-15T02:41:42.563Z,94291.38
2023-03-15T02:44:19.016Z,94292.44
2023-03-15T02:46:50.642Z,94293.19
2023-03-15T02:49:17.755Z,94296.00
2023-03-15T02:51:44.664Z,94305.41
2023-03-15T02:54:11.453Z,94300.72
2023-03-15T02:56:38.207Z,94307.19
2023-03-15T02:59:05.159Z,94302.00
2023-03-15T03:01:31.978Z,94326.84
2023-03-15T03:03:58.843Z,94322.41
2023-03-15T03:06:25.590Z,94335.78
2023-03-15T03:08:52.302Z,94328.97
2023-03-15T03:11:19.051Z,94330.88
2023-03-15T03:13:46.005Z,94329.81
2023-03-15T03:16:13.285Z,94345.00
2023-03-15T03:18:42.346Z,94338.78
2023-03-15T03:21:09.251Z,94345.34
2023-03-15T03:23:37.204Z,94358.88
2023-03-15T03:26:16.817Z,94357.94
2023-03-15T03:28:47.186Z,94358.97
2023-03-15T03:31:26.427Z,94367.31
2023-03-15T03:33:53.555Z,94359.16
2023-03-15T03:36:20.287Z,94370.56
2023-03-15T03:38:47.468Z,94362.34
2023-03-15T03:41:15.348Z,94358.91
2023-03-15T03:43:42.616Z,94375.97
2023-03-15T03:46:10.013Z,94372.19
2023-03-15T03:48:36.865Z,94369.63
2023-03-15T03:51:03.736Z,94383.66
2023-03-15T03:53:30.619Z,94383.41
2023-03-15T03:55:57.438Z,94378.75
2023-03-15T03:58:24.197Z,94385.94
2023-03-15T04:00:54.412Z,94395.88
2023-03-15T04:03:27.361Z,94390.91
2023-03-15T04:05:58.695Z,94400.91
2023-03-15T04:08:27.155Z,94413.34
2023-03-15T04:10:56.362Z,94416.75
2023-03-15T04:13:24.621Z,94409.00
2023-03-15T04:15:52.072Z,94425.59
2023-03-15T04:18:19.678Z,94422.81
2023-03-15T04:20:47.713Z,94424.25
2023-03-15T04:23:15.793Z,94429.44
2023-03-15T04:25:42.762Z,94428.53
2023-03-15T04:28:13.308Z,94425.81
2023-03-15T04:30:42.762Z,94426.53
2023-03-15T04:33:11.055Z,94433.22
2023-03-15T04:35:39.364Z,94444.56
2023-03-15T04:38:06.758Z,94432.78
2023-03-15T04:40:36.926Z,94443.56
2023-03-15T04:43:05.784Z,94457.03
2023-03-15T04:45:32.874Z,94450.41
2023-03-15T04:48:00.357Z,94459.50
2023-03-15T04:50:28.150Z,94460.94
2023-03-15T04:52:55.284Z,94472.75
2023-03-15T04:55:21.996Z,94470.41
2023-03-15T04:57:48.784Z,94459.22
2023-03-15T05:00:16.005Z,94480.09
2023-03-15T05:02:43.220Z,94479.78
2023-03-15T05:05:12.193Z,94491.78
2023-03-15T05:07:39.531Z,94487.22
2023-03-15T05:10:07.551Z,94492.59
2023-03-15T05:12:34.363Z,94484.34
2023-03-15T05:15:01.175Z,94503.44
2023-03-15T05:17:28.071Z,94504.19
2023-03-15T05:19:54.935Z,94495.06
2023-03-15T05:22:25.687Z,94509.53
2023-03-15T05:24:53.845Z,94515.31
2023-03-15T05:27:21.017Z,94518.31
2023-03-15T05:29:47.889Z,94515.31
2023-03-15T05:32:14.671Z,94514.31
2023-03-15T05:34:42.918Z,94517.81
2023-03-15T05:37:10.424Z,94519.25
2023-03-15T05:39:37.171Z,94523.59
2023-03-15T05:42:04.149Z,94529.38
2023-03-15T05:44:30.897Z,94541.75
2023-03-15T05:46:57.619Z,94557.97
2023-03-15T05:49:24.341Z,94556.03
2023-03-15T05:51:51.076Z,94554.91
2023-03-15T05:54:17.806Z,94562.00
2023-03-15T05:56:44.576Z,94573.78
2023-03-15T05:59:11.280Z,94564.78
2023-03-15T06:01:38.028Z,94571.63
2023-03-15T06:04:04.979Z,94570.03
2023-03-15T06:06:33.679Z,94572.84
2023-03-15T06:09:00.833Z,94566.72
2023-03-15T06:11:27.619Z,94574.38
2023-03-15T06:13:54.356Z,94575.31
2023-03-15T06:16:21.187Z,94577.91
2023-03-15T06:18:47.912Z,94575.19
2023-03-15T06:21:14.676Z,94574.69
2023-03-15T06:23:41.440Z,94576.88
2023-03-15T06:26:08.464Z,94583.47
2023-03-15T06:28:35.303Z,94583.06
2023-03-15T06:31:15.398Z,94581.50
2023-03-15T06:33:42.451Z,94580.75
2023-03-15T06:36:09.953Z,94585.97
2023-03-15T06:38:36.755Z,94590.31
2023-03-15T06:41:05.287Z,94566.94
2023-03-15T06:43:32.200Z,94585.75
2023-03-15T06:46:00.185Z,94585.75
2023-03-15T06:48:28.134Z,94583.97
2023-03-15T06:50:54.999Z,94580.75
2023-03-15T06:53:21.923Z,94592.75
2023-03-15T06:55:50.734Z,94601.66
2023-03-15T06:58:18.134Z,94613.34
2023-03-15T07:00:44.959Z,94597.53
2023-03-15T07:03:11.766Z,94592.53
2023-03-15T07:05:39.129Z,94608.56
2023-03-15T07:08:06.708Z,94606.81
2023-03-15T07:10:33.822Z,94608.06
2023-03-15T07:13:00.861Z,94615.72
2023-03-15T07:15:28.552Z,94609.72
2023-03-15T07:17:55.296Z,94615.31
2023-03-15T07:20:22.056Z,94610.34
2023-03-15T07:22:49.883Z,94614.69
2023-03-15T07:25:24.162Z,94613.38
2023-03-15T07:27:52.216Z,94615.66
2023-03-15T07:30:20.800Z,94612.25
2023-03-15T07:32:47.919Z,94611.22
2023-03-15T07:35:15.170Z,94622.09
2023-03-15T07:37:44.579Z,94620.84
2023-03-15T07:40:13.434Z,94605.03
2023-03-15T07:42:40.781Z,94624.88
2023-03-15T07:45:09.347Z,94618.75
2023-03-15T07:47:36.598Z,94616.97
2023-03-15T07:50:06.483Z,94619.94
2023-03-15T07:52:33.234Z,94610.88
2023-03-15T07:55:00.069Z,94617.66
2023-03-15T07:57:28.854Z,94627.66
2023-03-15T07:59:56.264Z,94621.28
2023-03-15T08:02:23.146Z,94622.16
2023-03-15T08:04:51.470Z,94612.75
2023-03-15T08:07:18.207Z,94626.13
2023-03-15T08:09:45.074Z,94620.59
2023-03-15T08:12:12.039Z,94613.00
2023-03-15T08:14:38.777Z,94609.69
2023-03-15T08:17:05.526Z,94614.22
2023-03-15T08:19:32.990Z,94620.97
2023-03-15T08:21:59.732Z,94624.25
2023-03-15T08:24:27.178Z,94625.41
2023-03-15T08:26:53.974Z,94613.75
2023-03-15T08:29:20.792Z,94609.75
2023-03-15T08:31:47.608Z,94626.00
2023-03-15T08:34:14.373Z,94631.50
2023-03-15T08:36:41.992Z,94616.41
2023-03-15T08:39:08.963Z,94625.88
2023-03-15T08:41:35.852Z,94625.34
2023-03-15T08:44:02.919Z,94631.88
2023-03-15T08:46:29.708Z,94625.28
2023-03-15T08:48:57.215Z,94637.09
2023-03-15T08:51:25.578Z,94627.50
2023-03-15T08:53:53.769Z,94628.09
2023-03-15T08:56:21.156Z,94618.41
2023-03-15T08:58:48.467Z,94634.22
2023-03-15T09:01:15.934Z,94626.09
2023-03-15T09:03:42.780Z,94626.78
2023-03-15T09:06:10.167Z,94635.91
2023-03-15T09:08:37.176Z,94635.41
2023-03-15T09:11:03.999Z,94635.63
2023-03-15T09:13:31.162Z,94640.13
2023-03-15T09:15:58.047Z,94642.06
2023-03-15T09:18:25.285Z,94640.88
2023-03-15T09:20:52.167Z,94644.72
2023-03-15T09:23:18.981Z,94647.22
2023-03-15T09:25:45.811Z,94650.09
2023-03-15T09:28:12.925Z,94640.28
2023-03-15T09:30:41.561Z,94639.22
2023-03-15T09:33:08.812Z,94646.53
2023-03-15T09:35:36.054Z,94646.03
2023-03-15T09:38:04.077Z,94638.16
2023-03-15T09:40:40.843Z,94640.03
2023-03-15T09:43:07.552Z,94649.69
2023-03-15T09:46:00.922Z,94647.72
2023-03-15T09:48:49.018Z,94635.84
2023-03-15T09:51:40.057Z,94640.03
2023-03-15T09:54:23.981Z,94651.00
2023-03-15T09:56:59.621Z,94656.19
2023-03-15T09:59:33.385Z,94654.59
2023-03-15T10:02:14.221Z,94654.91
2023-03-15T10:04:44.931Z,94642.41
2023-03-15T10:07:16.649Z,94637.47
2023-03-15T10:09:44.436Z,94647.88
2023-03-15T10:12:17.250Z,94644.06
2023-03-15T10:15:25.785Z,94649.59
2023-03-15T10:17:58.466Z,94654.09
2023-03-15T10:20:37.429Z,94650.31
2023-03-15T10:23:19.628Z,94649.25
2023-03-15T10:25:49.557Z,94644.63
2023-03-15T10:28:31.289Z,94641.94
2023-03-15T10:31:02.382Z,94656.06
2023-03-15T10:33:34.923Z,94659.31
2023-03-15T10:36:11.897Z,94652.06
2023-03-15T10:38:39.619Z,94639.06
2023-03-15T10:41:07.303Z,94648.53
2023-03-15T10:43:40.490Z,94647.81
2023-03-15T10:46:14.439Z,94654.00
2023-03-15T10:49:12.781Z,94650.44
2023-03-15T10:51:47.838Z,94629.31
2023-03-15T10:54:20.587Z,94637.72
2023-03-15T10:57:02.625Z,94639.47
2023-03-15T10:59:34.618Z,94639.91
2023-03-15T11:02:27.636Z,94640.59
2023-03-15T11:05:09.055Z,94643.88
2023-03-15T11:07:36.434Z,94643.56
2023-03-15T11:10:06.912Z,94649.06
2023-03-15T11:12:35.040Z,94639.13
2023-03-15T11:15:22.098Z,94630.81
2023-03-15T11:17:50.294Z,94633.44
2023-03-15T11:20:36.834Z,94621.00
2023-03-15T11:23:33.792Z,94632.41
2023-03-15T11:26:01.504Z,94626.06
2023-03-15T11:28:32.167Z,94619.91
2023-03-15T11:31:00.943Z,94613.78
2023-03-15T11:33:38.995Z,94609.72
2023-03-15T11:36:12.512Z,94616.31
2023-03-15T11:38:44.669Z,94616.78
2023-03-15T11:41:52.944Z,94618.59
2023-03-15T11:44:33.922Z,94620.28
2023-03-15T11:47:31.732Z,94616.63
2023-03-15T11:49:59.305Z,94606.00
2023-03-15T11:52:29.169Z,94611.28
2023-03-15T11:55:02.176Z,94604.63
2023-03-15T11:57:28.835Z,94607.28
2023-03-15T12:00:21.839Z,94618.28
2023-03-15T12:02:54.143Z,94604.38
2023-03-15T12:05:51.071Z,94606.94
2023-03-15T12:08:25.843Z,94597.50
2023-03-15T12:10:53.532Z,94594.44
2023-03-15T12:13:29.667Z,94599.69
2023-03-15T12:15:57.355Z,94589.97
2023-03-15T12:18:47.108Z,94595.88
2023-03-15T12:21:40.034Z,94592.94
2023-03-15T12:24:17.371Z,94594.19
2023-03-15T12:26:51.331Z,94593.94
2023-03-15T12:29:29.616Z,94593.50
2023-03-15T12:32:09.918Z,94590.72
2023-03-15T12:34:47.282Z,94586.28
2023-03-15T12:37:42.989Z,94580.03
2023-03-15T12:40:15.570Z,94592.94
2023-03-15T12:42:42.224Z,94581.34
2023-03-15T12:45:18.087Z,94591.81
2023-03-15T12:47:50.356Z,94598.50
2023-03-15T12:50:37.999Z,94599.91
2023-03-15T12:53:30.863Z,94597.72
2023-03-15T12:56:32.814Z,94604.25
2023-03-15T12:59:10.656Z,94600.06
2023-03-15T13:01:37.707Z,94594.41
2023-03-15T13:04:04.533Z,94588.78
2023-03-15T13:06:52.019Z,94589.50
2023-03-15T13:09:50.001Z,94594.44
2023-03-15T13:12:42.807Z,94593.63
2023-03-15T13:15:17.659Z,94583.53
2023-03-15T13:18:18.091Z,94594.91
2023-03-15T13:21:18.857Z,94583.66
2023-03-15T13:23:54.976Z,94575.59
2023-03-15T13:26:35.536Z,94578.19
2023-03-15T13:29:17.793Z,94580.69
2023-03-15T13:31:46.625Z,94576.56
2023-03-15T13:34:24.549Z,94580.78
2023-03-15T13:36:57.967Z,94579.38
2023-03-15T13:39:33.852Z,94577.38
2023-03-15T13:42:19.666Z,94571.41
2023-03-15T13:44:46.577Z,94568.97
2023-03-15T13:47:23.527Z,94562.03
2023-03-15T13:49:53.170Z,94568.13
2023-03-15T13:52:20.619Z,94571.31
2023-03-15T13:54:47.486Z,94574.09
2023-03-15T13:57:22.231Z,94582.56
2023-03-15T14:00:30.718Z,94581.97
2023-03-15T14:03:07.956Z,94582.41
2023-03-15T14:05:45.048Z,94576.91
2023-03-15T14:08:33.014Z,94580.06
2023-03-15T14:11:11.413Z,94574.38
2023-03-15T14:13:54.219Z,94573.56
2023-03-15T14:17:01.114Z,94581.47
2023-03-15T14:19:34.628Z,94578.56
2023-03-15T14:22:14.019Z,94587.25
2023-03-15T14:24:43.866Z,94585.94
2023-03-15T14:27:32.455Z,94576.44
2023-03-15T14:30:01.959Z,94579.22
2023-03-15T14:32:30.981Z,94589.22
2023-03-15T14:35:20.148Z,94589.88
2023-03-15T14:37:47.789Z,94585.34
2023-03-15T14:40:41.110Z,94579.53
2023-03-15T14:43:09.956Z,94585.13
2023-03-15T14:45:40.669Z,94572.03
2023-03-15T14:48:14.829Z,94573.59
2023-03-15T14:50:44.336Z,94568.75
2023-03-15T14:53:17.266Z,94569.75
2023-03-15T14:55:44.080Z,94565.88
2023-03-15T14:58:21.891Z,94571.81
2023-03-15T15:00:55.800Z,94568.34
2023-03-15T15:03:29.937Z,94559.09
2023-03-15T15:05:56.951Z,94570.22
2023-03-15T15:08:23.753Z,94562.94
2023-03-15T15:10:54.022Z,94564.13
2023-03-15T15:13:27.366Z,94555.63
2023-03-15T15:15:56.889Z,94566.22
2023-03-15T15:18:31.202Z,94560.72
2023-03-15T15:21:01.544Z,94567.03
2023-03-15T15:23:31.657Z,94550.25
2023-03-15T15:26:02.334Z,94563.25
2023-03-15T15:28:36.971Z,94539.09
2023-03-15T15:31:07.318Z,94560.81
2023-03-15T15:33:34.633Z,94562.56
2023-03-15T15:36:01.688Z,94575.19
2023-03-15T15:38:34.971Z,94570.13
2023-03-15T15:41:01.732Z,94587.88
2023-03-15T15:43:28.920Z,94584.97
2023-03-15T15:45:55.733Z,94599.19
2023-03-15T15:48:22.813Z,94585.91
2023-03-15T15:50:49.528Z,94582.34
2023-03-15T15:53:18.147Z,94607.09
2023-03-15T15:55:46.428Z,94606.66
2023-03-15T15:58:14.502Z,94599.75
2023-03-15T16:00:41.360Z,94598.75
2023-03-15T16:03:17.232Z,94603.50
2023-03-15T16:05:44.797Z,94607.94
2023-03-15T16:08:25.734Z,94605.81
2023-03-15T16:10:52.507Z,94618.09
2023-03-15T16:13:19.300Z,94621.31
2023-03-15T16:15:46.129Z,94616.81
2023-03-15T16:18:13.119Z,94629.16
2023-03-15T16:20:40.967Z,94643.13
2023-03-15T16:23:21.672Z,94646.63
2023-03-15T16:25:53.319Z,94647.97
2023-03-15T16:28:20.106Z,94658.16
2023-03-15T16:30:47.278Z,94656.13
2023-03-15T16:33:20.281Z,94654.19
2023-03-15T16:35:53.472Z,94670.03
2023-03-15T16:38:24.798Z,94659.72
2023-03-15T16:40:53.324Z,94652.53
2023-03-15T16:43:20.645Z,94675.13
2023-03-15T16:45:47.708Z,94680.50
2023-03-15T16:48:14.882Z,94680.19
2023-03-15T16:50:43.497Z,94688.72
2023-03-15T16:53:13.282Z,94686.31
2023-03-15T16:55:40.607Z,94692.06
2023-03-15T16:58:25.296Z,94693.94
2023-03-15T17:00:52.044Z,94704.44
2023-03-15T17:03:19.310Z,94710.63
2023-03-15T17:05:48.052Z,94713.19
2023-03-15T17:08:20.005Z,94720.75
2023-03-15T17:10:47.467Z,94702.44
2023-03-15T17:13:17.782Z,94715.66
2023-03-15T17:15:44.533Z,94724.72
2023-03-15T17:18:18.673Z,94715.41
2023-03-15T17:20:48.050Z,94721.44
2023-03-15T17:23:16.116Z,94720.75
2023-03-15T17:25:42.859Z,94724.47
2023-03-15T17:28:09.768Z,94731.09
2023-03-15T17:30:37.717Z,94738.94
2023-03-15T17:33:05.705Z,94735.50
2023-03-15T17:35:36.976Z,94737.84
2023-03-15T17:38:07.341Z,94734.03
2023-03-15T17:40:36.495Z,94749.94
2023-03-15T17:43:04.457Z,94759.28
2023-03-15T17:45:33.840Z,94744.13
2023-03-15T17:48:02.149Z,94750.44
2023-03-15T17:50:32.744Z,94757.59
2023-03-15T17:53:06.986Z,94756.34
2023-03-15T17:55:35.096Z,94743.81
2023-03-15T17:58:13.258Z,94762.75
2023-03-15T18:00:40.328Z,94763.97
2023-03-15T18:03:07.089Z,94767.69
2023-03-15T18:05:33.830Z,94767.94
2023-03-15T18:08:00.826Z,94775.09
2023-03-15T18:10:41.708Z,94779.09
2023-03-15T18:13:14.490Z,94766.56
2023-03-15T18:15:41.536Z,94781.94
2023-03-15T18:18:08.332Z,94783.84
2023-03-15T18:20:35.330Z,94774.22
2023-03-15T18:23:03.233Z,94780.66
2023-03-15T18:25:33.292Z,94788.38
2023-03-15T18:28:00.551Z,94794.41
2023-03-15T18:30:31.264Z,94798.22
2023-03-15T18:32:58.307Z,94801.63
2023-03-15T18:35:34.432Z,94807.41
2023-03-15T18:38:01.510Z,94801.38
2023-03-15T18:40:31.111Z,94800.84
2023-03-15T18:42:58.849Z,94804.25
2023-03-15T18:45:32.186Z,94793.09
2023-03-15T18:48:00.067Z,94799.34
2023-03-15T18:50:28.577Z,94800.75
2023-03-15T18:52:55.675Z,94800.50
2023-03-15T18:55:22.643Z,94798.53
2023-03-15T18:57:53.761Z,94805.53
2023-03-15T19:00:27.434Z,94789.97
2023-03-15T19:03:01.661Z,94803.69
2023-03-15T19:05:30.282Z,94796.84
2023-03-15T19:07:57.373Z,94790.66
2023-03-15T19:10:25.814Z,94779.94
2023-03-15T19:12:53.575Z,94785.28
2023-03-15T19:15:23.431Z,94804.22
2023-03-15T19:17:54.617Z,94803.97
2023-03-15T19:20:23.095Z,94797.78
2023-03-15T19:22:51.930Z,94809.44
2023-03-15T19:25:19.331Z,94804.03
2023-03-15T19:27:46.498Z,94793.84
2023-03-15T19:30:20.897Z,94804.75
2023-03-15T19:32:48.618Z,94790.31
2023-03-15T19:35:17.723Z,94805.59
2023-03-15T19:37:44.700Z,94793.13
2023-03-15T19:40:13.988Z,94801.13
2023-03-15T19:42:40.793Z,94802.09
2023-03-15T19:45:09.387Z,94805.13
2023-03-15T19:47:36.224Z,94799.22
2023-03-15T19:50:03.338Z,94807.59
2023-03-15T19:52:30.217Z,94803.31
2023-03-15T19:54:56.956Z,94806.72
2023-03-15T19:57:23.685Z,94812.94
2023-03-15T19:59:50.530Z,94814.84
2023-03-15T20:02:17.313Z,94805.16
2023-03-15T20:04:44.427Z,94811.94
2023-03-15T20:07:12.440Z,94823.97
2023-03-15T20:09:40.239Z,94823.16
2023-03-15T20:12:10.195Z,94816.31
2023-03-15T20:14:37.205Z,94826.97
2023-03-15T20:17:04.176Z,94824.59
2023-03-15T20:19:31.244Z,94813.50
2023-03-15T20:21:58.710Z,94819.78
2023-03-15T20:24:25.520Z,94824.72
2023-03-15T20:26:53.030Z,94822.94
2023-03-15T20:29:22.486Z,94814.19
2023-03-15T20:31:50.165Z,94811.97
2023-03-15T20:34:18.401Z,94818.41
2023-03-15T20:36:45.169Z,94809.97
2023-03-15T20:39:12.184Z,94819.59
2023-03-15T20:41:39.253Z,94814.41
2023-03-15T20:44:06.570Z,94815.59
2023-03-15T20:46:34.142Z,94811.31
2023-03-15T20:49:01.008Z,94804.81
2023-03-15T20:51:29.059Z,94806.72
2023-03-15T20:53:55.937Z,94811.81
2023-03-15T20:56:22.742Z,94812.09
2023-03-15T20:58:49.467Z,94809.50
2023-03-15T21:01:17.229Z,94807.28
2023-03-15T21:03:45.647Z,94824.28
2023-03-15T21:06:13.688Z,94824.66
2023-03-15T21:08:41.775Z,94829.38
2023-03-15T21:11:09.075Z,94829.59
2023-03-15T21:13:36.796Z,94821.56
2023-03-15T21:16:05.262Z,94812.84
2023-03-15T21:18:33.824Z,94825.63
2023-03-15T21:21:02.689Z,94826.91
2023-03-15T21:23:34.031Z,94813.91
2023-03-15T21:26:07.437Z,94806.25
2023-03-15T21:28:34.670Z,94815.56
2023-03-15T21:31:01.627Z,94819.13
2023-03-15T21:33:30.329Z,94828.69
2023-03-15T21:35:59.189Z,94815.66
2023-03-15T21:38:34.260Z,94815.06
2023-03-15T21:41:01.381Z,94827.69
2023-03-15T21:43:33.189Z,94829.78
2023-03-15T21:46:02.766Z,94829.53
2023-03-15T21:48:30.580Z,94830.81
2023-03-15T21:50:57.383Z,94835.66
2023-03-15T21:53:24.287Z,94837.16
2023-03-15T21:55:51.055Z,94833.47
2023-03-15T21:58:17.845Z,94822.31
2023-03-15T22:00:44.630Z,94837.81
2023-03-15T22:03:14.153Z,94837.16
2023-03-15T22:05:40.955Z,94833.38
2023-03-15T22:08:07.735Z,94832.56
2023-03-15T22:10:34.504Z,94844.31
2023-03-15T22:13:01.223Z,94841.91
2023-03-15T22:15:28.036Z,94841.72
2023-03-15T22:17:54.940Z,94845.56
2023-03-15T22:20:21.714Z,94840.47
2023-03-15T22:22:49.301Z,94839.56
2023-03-15T22:25:16.330Z,94843.41
2023-03-15T22:27:43.457Z,94837.72
2023-03-15T22:30:17.922Z,94841.47
2023-03-15T22:32:44.947Z,94837.66
2023-03-15T22:35:13.910Z,94845.53
2023-03-15T22:37:40.784Z,94854.69
2023-03-15T22:40:09.970Z,94835.63
2023-03-15T22:42:36.780Z,94834.09
2023-03-15T22:45:03.847Z,94849.00
2023-03-15T22:47:30.597Z,94846.00
2023-03-15T22:49:59.707Z,94842.28
2023-03-15T22:52:27.601Z,94828.09
2023-03-15T22:54:54.757Z,94849.03
2023-03-15T22:57:22.329Z,94847.19
2023-03-15T22:59:49.090Z,94852.91
2023-03-15T23:02:15.896Z,94861.13
2023-03-15T23:04:42.897Z,94854.47
2023-03-15T23:07:10.106Z,94854.16
2023-03-15T23:09:36.855Z,94844.41
2023-03-15T23:12:04.225Z,94852.50
2023-03-15T23:14:31.177Z,94854.25
2023-03-15T23:16:58.054Z,94870.84
2023-03-15T23:19:25.013Z,94860.69
2023-03-15T23:21:51.769Z,94853.97
2023-03-15T23:24:19.819Z,94859.53
2023-03-15T23:26:46.619Z,94856.16
2023-03-15T23:29:13.610Z,94851.88
2023-03-15T23:31:42.765Z,94841.94
2023-03-15T23:34:09.698Z,94838.03
2023-03-15T23:36:36.516Z,94839.03
2023-03-15T23:39:04.225Z,94844.44
2023-03-15T23:41:31.292Z,94849.00
2023-03-15T23:43:58.169Z,94845.03
2023-03-15T23:46:25.478Z,94850.84
2023-03-15T23:48:53.273Z,94840.50
2023-03-15T23:51:22.343Z,94840.78
2023-03-15T23:53:49.195Z,94849.19
2023-03-15T23:56:15.953Z,94851.16
2023-03-15T23:58:42.737Z,94860.16
